Time;durP1;ratioP1;P1;durP2;ratioP2;P2;SDS_P1;SDS_P2;PMS_P1;PMS_P2;Temp;Humidity;BMP_temperature;BMP_pressure;BME280_temperature;BME280_humidity;BME280_pressure;Samples;Min_cycle;Max_cycle;Signal;HPM_P1;HPM_P2
2023/08/29 00:05:18;;;;;;;10.63;7.15;;;;;;;26.17;56.62;100261.81;20977950;28;20049;-74
2023/08/29 00:15:41;;;;;;;12.30;7.10;;;;;;;26.11;59.00;100256.75;20940948;28;20111;-74
2023/08/29 00:26:08;;;;;;;12.38;7.35;;;;;;;26.08;64.65;100247.91;20887952;28;20045;-74
2023/08/29 00:36:30;;;;;;;9.45;6.45;;;;;;;26.12;75.06;100252.22;20918560;28;20048;-73
2023/08/29 00:46:58;;;;;;;10.07;6.50;;;;;;;26.07;80.26;100244.31;20901819;28;20060;-74
2023/08/29 00:57:20;;;;;;;12.32;6.93;;;;;;;25.96;82.90;100254.88;20913369;28;20048;-74
2023/08/29 01:07:45;;;;;;;11.32;6.97;;;;;;;25.94;84.91;100253.22;20909692;28;20413;-74
2023/08/29 01:18:12;;;;;;;10.40;6.75;;;;;;;25.82;87.30;100262.91;20870260;28;20061;-73
2023/08/29 01:28:38;;;;;;;13.73;7.33;;;;;;;25.80;91.55;100262.09;20866950;28;20065;-74
2023/08/29 01:39:00;;;;;;;10.43;6.82;;;;;;;25.65;95.27;100262.97;20884182;28;20048;-73
2023/08/29 01:49:25;;;;;;;10.52;7.15;;;;;;;25.47;96.82;100258.53;20916647;28;20101;-74
2023/08/29 01:59:48;;;;;;;11.75;7.10;;;;;;;25.33;96.95;100267.38;20916941;28;20045;-73
2023/08/29 02:10:12;;;;;;;11.32;6.97;;;;;;;25.16;100.00;100254.72;20894980;28;20035;-73
2023/08/29 02:20:37;;;;;;;11.85;7.55;;;;;;;25.09;100.00;100253.31;20912390;28;20060;-73
2023/08/29 02:31:04;;;;;;;11.55;7.68;;;;;;;24.96;100.00;100258.47;20873845;28;20052;-74
2023/08/29 02:41:27;;;;;;;11.80;8.02;;;;;;;24.89;100.00;100246.22;20865491;28;20056;-73
2023/08/29 02:51:51;;;;;;;12.63;7.55;;;;;;;24.80;100.00;100264.72;20929079;28;20061;-74
2023/08/29 03:02:13;;;;;;;15.52;7.75;;;;;;;24.77;100.00;100270.25;20886921;28;20049;-74
2023/08/29 03:12:37;;;;;;;13.20;7.82;;;;;;;24.74;100.00;100262.34;20906041;28;20057;-74
2023/08/29 03:23:00;;;;;;;11.90;7.65;;;;;;;24.68;100.00;100262.66;20875552;28;20416;-74
2023/08/29 03:33:24;;;;;;;12.32;8.20;;;;;;;24.64;100.00;100267.31;20900499;28;20090;-74
2023/08/29 03:43:46;;;;;;;9.77;7.95;;;;;;;24.51;100.00;100266.19;20926052;28;20107;-74
2023/08/29 03:54:10;;;;;;;14.07;8.50;;;;;;;24.48;100.00;100260.94;20929926;28;20051;-75
2023/08/29 04:04:34;;;;;;;10.38;7.93;;;;;;;24.58;100.00;100256.81;20922704;28;20072;-74
2023/08/29 04:14:58;;;;;;;15.93;7.95;;;;;;;24.83;100.00;100267.25;20904972;28;20457;-74
2023/08/29 04:25:20;;;;;;;12.98;7.40;;;;;;;25.19;100.00;100273.50;20898631;28;20041;-74
2023/08/29 04:35:45;;;;;;;11.57;6.85;;;;;;;25.66;100.00;100273.69;20952269;28;20067;-75
2023/08/29 04:46:08;;;;;;;11.40;6.47;;;;;;;26.26;100.00;100270.38;20932581;28;20533;-75
2023/08/29 04:56:32;;;;;;;10.40;7.00;;;;;;;26.83;100.00;100272.41;20971417;28;20055;-74
2023/08/29 05:06:55;;;;;;;11.68;8.00;;;;;;;27.71;100.00;100274.28;20950325;28;20056;-74
2023/08/29 05:17:22;;;;;;;12.13;7.32;;;;;;;28.59;100.00;100271.28;20906410;28;20088;-74
2023/08/29 05:27:45;;;;;;;11.70;7.15;;;;;;;29.26;100.00;100288.47;20897968;28;20049;-74
2023/08/29 05:38:09;;;;;;;12.65;8.10;;;;;;;29.95;100.00;100277.19;20887934;28;20041;-74
2023/08/29 05:48:32;;;;;;;12.32;8.05;;;;;;;30.92;100.00;100282.66;20906235;28;20060;-75
2023/08/29 05:58:56;;;;;;;13.80;8.43;;;;;;;31.58;99.66;100273.81;20925961;28;20044;-73
2023/08/29 06:09:18;;;;;;;11.90;7.95;;;;;;;32.28;94.88;100281.84;20890146;28;20301;-74
2023/08/29 06:19:42;;;;;;;12.50;7.85;;;;;;;32.84;87.44;100274.38;20929392;28;20064;-73
2023/08/29 06:30:07;;;;;;;12.45;7.75;;;;;;;33.31;79.95;100282.28;20890140;28;20073;-74
2023/08/29 06:40:30;;;;;;;11.77;7.83;;;;;;;33.62;72.88;100273.97;20940918;28;20080;-74
2023/08/29 06:50:53;;;;;;;9.27;8.02;;;;;;;33.89;70.23;100270.69;20986722;28;20052;-74
2023/08/29 07:01:17;;;;;;;9.40;8.38;;;;;;;34.27;66.05;100278.22;21013386;28;20385;-74
2023/08/29 07:11:39;;;;;;;11.00;8.13;;;;;;;34.52;62.25;100276.00;20952883;28;20044;-74
2023/08/29 07:22:04;;;;;;;11.32;7.88;;;;;;;34.86;59.30;100276.47;20919577;28;20060;-74
2023/08/29 07:32:28;;;;;;;14.15;8.73;;;;;;;35.02;58.01;100291.38;20927760;28;20048;-74
2023/08/29 07:42:52;;;;;;;10.52;7.35;;;;;;;35.12;54.90;100305.09;20938935;28;20053;-74
2023/08/29 07:53:15;;;;;;;9.60;6.57;;;;;;;35.44;50.02;100294.72;20937949;28;20057;-74
2023/08/29 08:03:39;;;;;;;10.85;7.40;;;;;;;35.84;46.52;100304.63;20946309;28;20060;-74
2023/08/29 08:14:06;;;;;;;11.52;8.23;;;;;;;35.97;44.95;100314.25;20927616;28;20052;-73
2023/08/29 08:24:30;;;;;;;11.35;7.25;;;;;;;35.94;44.71;100305.47;20921090;28;20073;-73
2023/08/29 08:34:52;;;;;;;9.83;7.57;;;;;;;35.94;42.82;100299.97;20908913;28;20053;-75
2023/08/29 08:45:20;;;;;;;13.00;7.80;;;;;;;36.23;41.87;100300.75;20901428;28;20052;-73
2023/08/29 08:55:43;;;;;;;11.25;7.93;;;;;;;36.60;40.43;100295.16;20929221;28;20493;-73
2023/08/29 09:06:08;;;;;;;12.55;7.63;;;;;;;37.01;40.66;100288.25;20945228;28;20539;-73
2023/08/29 09:16:30;;;;;;;12.43;7.38;;;;;;;37.73;39.82;100291.81;20917554;28;20075;-73
2023/08/29 09:26:54;;;;;;;9.10;7.38;;;;;;;37.92;39.22;100296.22;20915601;28;20049;-74
2023/08/29 09:37:17;;;;;;;9.23;7.05;;;;;;;37.86;39.37;100278.44;20951849;28;20056;-74
2023/08/29 09:47:41;;;;;;;7.93;7.07;;;;;;;37.85;38.75;100294.13;20877162;28;20566;-73
2023/08/29 09:58:06;;;;;;;11.23;7.30;;;;;;;37.99;38.62;100278.88;20899680;28;20056;-74
2023/08/29 10:08:39;;;;;;;11.02;7.30;;;;;;;38.45;38.40;100280.31;20895010;28;20095;-73
2023/08/29 10:19:02;;;;;;;10.48;8.23;;;;;;;38.65;38.19;100272.63;20903899;28;20085;-73
2023/08/29 10:29:26;;;;;;;12.50;8.07;;;;;;;38.77;38.04;100259.34;20906167;28;20131;-74
2023/08/29 10:39:51;;;;;;;10.90;7.68;;;;;;;38.20;38.87;100264.69;20955895;28;20049;-73
2023/08/29 10:50:22;;;;;;;13.20;7.82;;;;;;;37.62;40.94;100281.91;20928263;28;20132;-74
2023/08/29 11:00:54;;;;;;;13.30;8.25;;;;;;;36.83;43.44;100287.34;20900156;28;20136;-73
2023/08/29 11:11:21;;;;;;;11.57;8.65;;;;;;;36.19;46.11;100292.94;20898527;28;20546;-73
2023/08/29 11:21:45;;;;;;;11.77;9.57;;;;;;;35.86;50.02;100294.34;20919850;28;20581;-73
2023/08/29 11:32:09;;;;;;;11.88;9.40;;;;;;;35.77;53.47;100300.75;20883064;28;20051;-73
2023/08/29 11:42:32;;;;;;;13.32;9.10;;;;;;;35.46;56.95;100322.88;20890953;28;20132;-72
2023/08/29 11:52:56;;;;;;;9.10;7.43;;;;;;;35.74;57.36;100303.78;20912880;28;20055;-73
2023/08/29 12:03:22;;;;;;;12.63;9.65;;;;;;;35.80;57.33;100297.69;20957276;28;20060;-73
2023/08/29 12:14:01;;;;;;;10.93;9.48;;;;;;;35.78;53.87;100297.81;20933441;28;20053;-73
2023/08/29 12:24:24;;;;;;;12.90;9.80;;;;;;;35.88;53.76;100286.81;20947896;28;20052;-73
2023/08/29 12:34:47;;;;;;;12.13;9.32;;;;;;;35.62;54.75;100280.22;20949751;28;20044;-74
2023/08/29 12:45:11;;;;;;;13.18;10.77;;;;;;;35.26;57.46;100269.00;20910900;28;20409;-73
2023/08/29 12:55:35;;;;;;;13.35;10.55;;;;;;;35.05;59.42;100254.56;20915403;28;20051;-74
2023/08/29 13:05:57;;;;;;;13.90;10.88;;;;;;;34.68;62.22;100247.00;20902764;28;20053;-73
2023/08/29 13:16:31;;;;;;;13.60;10.95;;;;;;;34.54;65.00;100239.19;20962882;28;20057;-73
2023/08/29 13:26:54;;;;;;;12.45;10.07;;;;;;;34.49;65.68;100227.78;20907924;28;20057;-73
2023/08/29 13:37:18;;;;;;;12.05;9.68;;;;;;;34.33;60.37;100232.97;20956645;28;20411;-73
2023/08/29 13:47:41;;;;;;;15.70;11.00;;;;;;;34.44;59.68;100204.53;20899321;28;20053;-73
2023/08/29 13:58:05;;;;;;;13.55;10.40;;;;;;;34.30;59.71;100203.94;20927325;28;20052;-73
2023/08/29 14:08:28;;;;;;;15.25;9.88;;;;;;;34.44;58.24;100204.53;20909890;28;20052;-73
2023/08/29 14:18:52;;;;;;;11.88;9.88;;;;;;;34.44;60.63;100202.66;20937747;28;20060;-73
2023/08/29 14:29:16;;;;;;;12.90;10.20;;;;;;;34.63;55.29;100210.91;20874941;28;20053;-73
2023/08/29 14:39:40;;;;;;;12.77;9.90;;;;;;;34.47;52.14;100199.63;20886844;28;20064;-73
2023/08/29 14:50:03;;;;;;;12.05;9.75;;;;;;;34.01;52.11;100211.19;20893258;28;20049;-72
2023/08/29 15:00:28;;;;;;;16.50;10.60;;;;;;;33.65;54.26;100215.34;20949319;28;20048;-73
2023/08/29 15:10:51;;;;;;;15.45;10.20;;;;;;;33.16;57.56;100216.03;20949460;28;20048;-73
2023/08/29 15:21:15;;;;;;;13.43;9.52;;;;;;;32.84;57.58;100216.09;20887927;28;20064;-73
2023/08/29 15:31:38;;;;;;;13.25;10.65;;;;;;;32.55;59.29;100224.03;20927134;28;20052;-72
2023/08/29 15:42:04;;;;;;;13.55;10.27;;;;;;;32.34;61.98;100218.47;20938227;28;20058;-72
2023/08/29 15:52:28;;;;;;;14.47;11.50;;;;;;;32.11;64.42;100227.69;21013785;28;20064;-72
2023/08/29 16:02:52;;;;;;;14.73;12.48;;;;;;;31.91;68.81;100236.63;20986110;28;20574;-72
2023/08/29 16:13:14;;;;;;;17.60;11.35;;;;;;;31.66;71.61;100241.34;20921827;28;20041;-72
2023/08/29 16:23:38;;;;;;;21.98;12.50;;;;;;;31.45;73.66;100239.44;20907005;28;20052;-72
2023/08/29 16:34:01;;;;;;;17.63;13.02;;;;;;;31.17;77.39;100246.22;20949198;28;20060;-72
2023/08/29 16:44:25;;;;;;;19.17;13.05;;;;;;;30.98;80.92;100256.78;20878830;28;20049;-72
2023/08/29 16:54:48;;;;;;;15.80;13.70;;;;;;;30.85;81.25;100256.88;20924991;28;20335;-73
2023/08/29 17:05:15;;;;;;;20.42;12.65;;;;;;;30.68;83.18;100260.88;20931823;28;20053;-74
2023/08/29 17:15:37;;;;;;;15.82;12.98;;;;;;;30.41;86.02;100261.06;20934039;28;20079;-73
2023/08/29 17:26:01;;;;;;;16.58;12.55;;;;;;;30.16;86.59;100273.88;20947859;28;20052;-72
2023/08/29 17:36:24;;;;;;;17.45;13.70;;;;;;;29.98;85.67;100270.66;20934871;28;20048;-73
2023/08/29 17:46:48;;;;;;;16.70;12.80;;;;;;;29.84;85.99;100268.91;20914636;28;20059;-73
2023/08/29 17:57:10;;;;;;;16.55;13.02;;;;;;;29.65;85.55;100269.38;20886601;28;20041;-73
2023/08/29 18:07:35;;;;;;;15.45;12.85;;;;;;;29.48;85.57;100260.63;20925495;28;20497;-74
2023/08/29 18:18:00;;;;;;;17.92;13.50;;;;;;;29.27;87.37;100258.44;20905666;28;20103;-73
2023/08/29 18:28:25;;;;;;;17.88;13.70;;;;;;;29.12;87.47;100266.78;20861774;28;20493;-73
2023/08/29 18:38:48;;;;;;;17.10;12.48;;;;;;;28.82;83.99;100257.03;20914897;28;20049;-73
2023/08/29 18:49:12;;;;;;;17.95;14.23;;;;;;;28.64;84.86;100246.50;20894909;28;20063;-74
2023/08/29 18:59:34;;;;;;;22.23;17.30;;;;;;;28.43;87.45;100265.09;20913593;28;20041;-73
2023/08/29 19:10:00;;;;;;;17.50;11.55;;;;;;;28.36;83.98;100271.91;20907128;28;20404;-73
2023/08/29 19:20:22;;;;;;;18.27;13.55;;;;;;;28.26;83.04;100287.06;20929598;28;20060;-73
2023/08/29 19:30:48;;;;;;;14.55;12.45;;;;;;;28.08;81.48;100280.97;20922884;28;20049;-74
2023/08/29 19:41:12;;;;;;;15.40;11.95;;;;;;;27.91;78.75;100286.59;20928969;28;20382;-74
2023/08/29 19:51:37;;;;;;;13.05;9.75;;;;;;;27.74;71.72;100285.84;20948988;28;20534;-73
2023/08/29 20:01:59;;;;;;;17.45;10.23;;;;;;;27.57;69.33;100286.00;20904758;28;20048;-74
2023/08/29 20:12:23;;;;;;;13.65;9.88;;;;;;;27.56;66.72;100287.00;20911349;28;20094;-74
2023/08/29 20:22:46;;;;;;;11.40;9.25;;;;;;;27.45;63.94;100286.72;20900679;28;20107;-74
2023/08/29 20:33:11;;;;;;;13.00;8.82;;;;;;;27.34;61.14;100287.41;20929400;28;20969;-74
2023/08/29 20:43:33;;;;;;;15.93;11.40;;;;;;;27.15;59.91;100280.47;20911967;28;20056;-74
2023/08/29 20:53:57;;;;;;;11.20;9.18;;;;;;;27.04;59.13;100299.25;20917714;28;20044;-73
2023/08/29 21:04:23;;;;;;;12.27;9.50;;;;;;;26.98;59.48;100300.44;20860516;28;20041;-75
2023/08/29 21:14:47;;;;;;;12.55;9.52;;;;;;;26.84;58.73;100303.97;20949411;28;20056;-74
2023/08/29 21:25:09;;;;;;;12.50;9.82;;;;;;;26.76;59.79;100300.84;20902162;28;20394;-74
2023/08/29 21:35:33;;;;;;;12.65;10.30;;;;;;;26.64;61.42;100300.69;20912149;28;20444;-75
2023/08/29 21:45:57;;;;;;;15.30;10.60;;;;;;;26.54;63.40;100300.31;20896336;28;20052;-74
2023/08/29 21:56:22;;;;;;;14.75;10.27;;;;;;;26.41;66.18;100300.16;20911951;28;20052;-74
2023/08/29 22:06:46;;;;;;;13.90;10.45;;;;;;;26.32;67.71;100305.25;20949170;28;20409;-75
2023/08/29 22:17:10;;;;;;;14.95;11.13;;;;;;;26.07;71.39;100313.81;20922520;28;20458;-75
2023/08/29 22:27:33;;;;;;;13.23;10.60;;;;;;;26.13;71.95;100306.22;20885547;28;20057;-75
2023/08/29 22:37:57;;;;;;;15.65;11.35;;;;;;;26.10;73.12;100306.41;20903573;28;20409;-75
2023/08/29 22:48:19;;;;;;;15.70;11.52;;;;;;;25.98;75.28;100303.50;20886705;28;20037;-75
2023/08/29 22:58:46;;;;;;;15.38;12.07;;;;;;;25.90;78.27;100308.47;20918945;28;20049;-74
2023/08/29 23:09:09;;;;;;;17.25;10.70;;;;;;;25.80;80.18;100295.44;20909234;28;20079;-76
2023/08/29 23:19:33;;;;;;;16.80;11.45;;;;;;;25.73;81.54;100293.16;20951660;28;20501;-75
2023/08/29 23:29:56;;;;;;;15.80;11.60;;;;;;;25.57;84.36;100301.22;20929132;28;20103;-74
2023/08/29 23:40:20;;;;;;;19.52;12.32;;;;;;;25.54;85.73;100298.63;20897466;28;20053;-75
2023/08/29 23:50:42;;;;;;;16.70;12.68;;;;;;;25.46;88.99;100287.38;20911162;28;20045;-75
